Time;durP1;ratioP1;P1;durP2;ratioP2;P2;SDS_P1;SDS_P2;PMS_P1;PMS_P2;Temp;Humidity;BMP_temperature;BMP_pressure;BME280_temperature;BME280_humidity;BME280_pressure;Samples;Min_cycle;Max_cycle;Signal;HPM_P1;HPM_P2
2021/12/02 00:00:54;;;;;;;0.90;0.55;;;;;;;4.85;89.91;97080.59;5028125;28;20021;-70
2021/12/02 00:03:19;;;;;;;1.85;0.80;;;;;;;5.02;90.86;97118.47;5032075;28;20033;-71
2021/12/02 00:05:44;;;;;;;1.85;0.50;;;;;;;4.77;90.79;97092.38;5028119;28;20029;-71
2021/12/02 00:08:10;;;;;;;2.20;0.90;;;;;;;4.83;91.38;97117.50;5012171;28;20033;-70
2021/12/02 00:10:35;;;;;;;2.78;0.90;;;;;;;4.74;91.07;97097.28;5031097;28;20036;-70
2021/12/02 00:13:02;;;;;;;3.08;0.82;;;;;;;4.66;91.83;97092.97;5022235;28;20104;-71
2021/12/02 00:15:49;;;;;;;3.45;0.77;;;;;;;4.80;91.45;97124.09;5031865;28;20025;-70
2021/12/02 00:24:03;;;;;;;3.75;0.70;;;;;;;4.74;92.58;97130.28;5010873;28;20057;-70
2021/12/02 00:26:29;;;;;;;2.22;0.80;;;;;;;4.42;93.46;97094.44;5021407;28;20044;-70
2021/12/02 00:28:58;;;;;;;2.13;0.80;;;;;;;4.41;94.25;97110.72;5028818;28;20663;-73
2021/12/02 00:31:28;;;;;;;3.20;0.60;;;;;;;4.46;93.74;97133.16;5027627;28;20037;-70
2021/12/02 00:33:57;;;;;;;3.97;0.80;;;;;;;4.32;93.72;97105.56;5029295;28;20033;-73
2021/12/02 00:36:24;;;;;;;1.67;0.57;;;;;;;4.36;94.29;97136.25;5022757;28;20029;-73
2021/12/02 00:38:51;;;;;;;3.83;0.70;;;;;;;4.35;94.49;97147.19;5026523;28;20036;-70
2021/12/02 00:41:18;;;;;;;3.08;1.02;;;;;;;4.32;94.83;97147.56;5012518;28;20053;-70
2021/12/02 00:43:45;;;;;;;2.70;0.70;;;;;;;4.39;94.92;97151.06;5028665;28;20483;-70
2021/12/02 00:46:14;;;;;;;3.05;0.93;;;;;;;4.32;93.61;97123.47;5029021;28;20037;-71
2021/12/02 00:48:41;;;;;;;4.35;0.90;;;;;;;4.56;93.54;97151.53;5028222;28;20048;-70
2021/12/02 00:51:08;;;;;;;3.08;0.85;;;;;;;4.36;93.51;97125.53;5025268;28;20170;-71
2021/12/02 00:53:36;;;;;;;7.05;1.00;;;;;;;4.48;93.78;97143.66;5012142;28;20698;-70
2021/12/02 00:56:04;;;;;;;2.00;0.70;;;;;;;4.50;93.27;97152.31;5017011;28;20100;-71
2021/12/02 00:58:31;;;;;;;4.18;0.77;;;;;;;4.28;94.39;97143.66;5032155;28;20065;-70
2021/12/02 01:00:57;;;;;;;4.20;1.00;;;;;;;4.30;94.58;97139.75;5029982;28;20028;-70
2021/12/02 01:03:25;;;;;;;3.88;0.95;;;;;;;4.31;94.22;97135.22;5029881;28;20403;-70
2021/12/02 01:05:51;;;;;;;1.48;0.70;;;;;;;4.11;94.48;97108.41;5029448;28;20029;-70
2021/12/02 01:08:17;;;;;;;3.05;0.90;;;;;;;4.38;93.88;97141.41;5013312;28;20033;-70
2021/12/02 01:10:43;;;;;;;3.60;1.23;;;;;;;4.29;94.37;97118.53;5011286;28;20033;-70
2021/12/02 01:13:08;;;;;;;5.07;1.00;;;;;;;4.19;94.80;97124.28;5031441;28;20024;-71
2021/12/02 01:15:33;;;;;;;2.03;0.65;;;;;;;4.38;94.33;97130.69;5028624;28;20025;-72
2021/12/02 01:17:59;;;;;;;2.38;1.00;;;;;;;4.36;93.88;97130.06;5028378;28;20025;-70
2021/12/02 01:20:24;;;;;;;1.75;0.80;;;;;;;4.45;94.14;97136.84;5032169;28;20033;-70
2021/12/02 01:22:50;;;;;;;1.65;0.70;;;;;;;4.43;93.41;97125.56;5031170;28;20018;-72
2021/12/02 01:25:19;;;;;;;6.32;1.15;;;;;;;4.52;93.66;97137.69;5029809;28;20036;-71
2021/12/02 01:27:47;;;;;;;1.20;0.60;;;;;;;4.55;93.72;97152.53;5032060;28;20029;-72
2021/12/02 01:30:13;;;;;;;2.17;0.63;;;;;;;4.50;94.09;97144.28;5031305;28;20482;-73
2021/12/02 01:32:39;;;;;;;3.88;0.70;;;;;;;4.63;94.03;97154.19;5011546;28;20028;-70
2021/12/02 01:35:06;;;;;;;1.40;0.70;;;;;;;4.66;93.92;97154.56;5012122;28;20048;-71
2021/12/02 01:37:32;;;;;;;8.43;0.80;;;;;;;4.67;92.88;97155.44;5014247;28;20054;-70
2021/12/02 01:39:58;;;;;;;3.13;1.05;;;;;;;4.61;93.21;97151.69;5030231;28;20481;-70
2021/12/02 01:42:26;;;;;;;5.45;0.93;;;;;;;4.76;92.21;97154.19;5009234;28;20030;-70
2021/12/02 01:44:57;;;;;;;3.13;0.68;;;;;;;4.73;91.97;97141.19;5011128;28;20235;-70
2021/12/02 01:47:25;;;;;;;3.97;1.00;;;;;;;4.85;92.17;97163.66;4995605;28;20164;-70
2021/12/02 01:49:56;;;;;;;4.05;0.90;;;;;;;4.85;92.20;97152.94;5029951;28;20022;-71
2021/12/02 01:52:27;;;;;;;1.88;0.70;;;;;;;4.90;91.88;97165.69;5030924;28;20025;-70
2021/12/02 01:55:05;;;;;;;1.38;0.75;;;;;;;4.75;92.18;97134.59;5028142;28;20033;-73
2021/12/02 01:57:32;;;;;;;1.70;0.82;;;;;;;4.81;91.92;97140.97;5030836;28;20095;-70
2021/12/02 02:00:11;;;;;;;6.03;1.00;;;;;;;4.92;92.04;97169.81;5031212;28;20112;-70
2021/12/02 02:02:38;;;;;;;3.92;0.70;;;;;;;4.99;91.41;97164.47;5029539;28;20026;-71
2021/12/02 02:05:10;;;;;;;3.63;0.75;;;;;;;4.93;92.03;97158.09;4996243;28;20032;-71
2021/12/02 02:07:41;;;;;;;6.32;0.82;;;;;;;4.94;91.62;97165.09;5025506;28;20405;-70
2021/12/02 02:10:06;;;;;;;2.78;0.70;;;;;;;4.80;91.74;97147.38;5023583;28;20109;-70
2021/12/02 02:12:33;;;;;;;7.22;0.80;;;;;;;4.91;92.00;97181.59;5028223;28;20108;-70
2021/12/02 02:14:59;;;;;;;7.13;0.90;;;;;;;4.92;92.50;97161.78;5030572;28;20029;-70
2021/12/02 02:17:31;;;;;;;3.53;0.85;;;;;;;4.81;91.94;97157.06;5031033;28;20025;-70
2021/12/02 02:19:57;;;;;;;2.33;0.80;;;;;;;4.98;91.86;97166.31;5029581;28;20029;-70
2021/12/02 02:22:24;;;;;;;3.53;0.77;;;;;;;5.02;91.37;97167.53;5030627;28;20055;-71
2021/12/02 02:24:50;;;;;;;2.70;0.73;;;;;;;4.98;91.32;97157.47;5025977;28;20117;-70
2021/12/02 02:27:15;;;;;;;1.63;0.60;;;;;;;4.98;91.91;97158.28;5026102;28;20029;-71
2021/12/02 02:29:41;;;;;;;2.88;0.55;;;;;;;5.02;90.56;97156.81;5028712;28;20398;-70
2021/12/02 02:32:06;;;;;;;2.33;0.70;;;;;;;5.05;90.69;97169.81;5030316;28;20017;-70
2021/12/02 02:34:32;;;;;;;4.00;0.80;;;;;;;4.89;90.97;97140.75;5026000;28;20117;-72
2021/12/02 02:37:01;;;;;;;3.17;0.80;;;;;;;4.90;91.00;97134.38;5023153;28;20076;-70
2021/12/02 02:39:28;;;;;;;1.52;0.57;;;;;;;5.01;91.57;97159.72;5029889;28;20048;-70
2021/12/02 02:41:57;;;;;;;1.42;0.63;;;;;;;5.03;91.23;97157.63;5028184;28;20121;-71
2021/12/02 02:44:25;;;;;;;1.70;0.70;;;;;;;5.02;91.57;97164.03;5028469;28;20029;-70
2021/12/02 02:46:51;;;;;;;2.58;0.60;;;;;;;4.94;91.63;97140.97;5026299;28;20380;-70
2021/12/02 02:49:16;;;;;;;2.03;0.60;;;;;;;4.97;91.35;97153.13;5029330;28;20032;-70
2021/12/02 02:51:43;;;;;;;2.72;0.73;;;;;;;4.96;91.90;97160.34;5029679;28;20108;-70
2021/12/02 02:54:10;;;;;;;1.85;0.68;;;;;;;4.97;91.98;97156.63;5010126;28;20029;-71
2021/12/02 02:56:43;;;;;;;3.35;0.90;;;;;;;4.91;92.29;97146.75;4999455;28;20129;-70
2021/12/02 02:59:26;;;;;;;3.38;0.80;;;;;;;4.94;91.99;97150.88;5024037;28;20063;-70
2021/12/02 03:02:09;;;;;;;2.00;0.73;;;;;;;4.81;91.92;97120.38;5029368;28;20033;-70
2021/12/02 03:07:19;;;;;;;2.15;0.80;;;;;;;4.92;92.12;97145.69;5024216;28;20078;-71
2021/12/02 03:09:51;;;;;;;2.33;0.50;;;;;;;4.97;91.99;97153.94;5029758;28;20044;-70
2021/12/02 03:12:32;;;;;;;5.22;0.80;;;;;;;4.83;91.29;97134.38;5029909;28;20022;-70
2021/12/02 03:17:27;;;;;;;6.18;0.75;;;;;;;4.72;91.81;97118.13;5028305;28;20037;-71
2021/12/02 03:19:52;;;;;;;4.20;1.00;;;;;;;4.82;92.20;97153.34;5026625;28;20779;-72
2021/12/02 03:22:18;;;;;;;3.83;0.63;;;;;;;4.71;92.36;97148.59;5025835;28;20563;-70
2021/12/02 03:24:43;;;;;;;3.10;0.70;;;;;;;4.71;92.46;97146.75;5029269;28;20033;-71
2021/12/02 03:27:09;;;;;;;1.90;0.50;;;;;;;4.76;92.11;97148.81;5029088;28;20056;-71
2021/12/02 03:29:34;;;;;;;1.52;0.80;;;;;;;4.70;92.49;97146.97;5008010;28;20446;-70
2021/12/02 03:32:00;;;;;;;2.30;0.82;;;;;;;4.57;93.38;97135.22;5017964;28;20092;-70
2021/12/02 03:34:25;;;;;;;2.83;0.73;;;;;;;4.51;93.57;97152.13;5025973;28;20029;-71
2021/12/02 03:36:52;;;;;;;0.80;0.35;;;;;;;4.43;93.85;97135.41;5027704;28;20033;-70
2021/12/02 03:39:17;;;;;;;3.03;0.70;;;;;;;4.56;93.17;97160.38;5028942;28;20033;-70
2021/12/02 03:41:43;;;;;;;1.02;0.50;;;;;;;4.57;93.38;97153.97;5029341;28;20025;-70
2021/12/02 03:44:09;;;;;;;3.45;1.13;;;;;;;4.32;93.60;97120.78;5026409;28;20041;-70
2021/12/02 03:46:35;;;;;;;3.40;1.05;;;;;;;4.51;93.37;97154.81;5029187;28;20036;-71
2021/12/02 03:49:01;;;;;;;2.60;1.00;;;;;;;4.49;93.34;97146.16;5026357;28;20037;-70
2021/12/02 03:51:27;;;;;;;2.80;0.70;;;;;;;4.35;93.84;97131.13;5029106;28;20029;-71
2021/12/02 03:53:53;;;;;;;10.60;0.90;;;;;;;4.38;94.21;97149.44;5027545;28;20084;-70
2021/12/02 03:56:18;;;;;;;2.88;0.65;;;;;;;4.33;94.60;97149.22;5022037;28;20035;-71
2021/12/02 03:58:45;;;;;;;1.48;0.70;;;;;;;4.29;95.19;97153.31;5028813;28;20021;-70
2021/12/02 04:01:12;;;;;;;2.15;0.68;;;;;;;4.30;94.84;97152.31;5024656;28;20037;-70
2021/12/02 04:03:37;;;;;;;2.78;0.80;;;;;;;4.26;94.28;97132.31;5015717;28;20033;-70
2021/12/02 04:06:04;;;;;;;5.10;0.57;;;;;;;4.36;93.91;97140.78;5004862;28;20124;-71
2021/12/02 04:08:32;;;;;;;1.75;0.73;;;;;;;4.22;94.14;97128.41;5023208;28;20040;-70
2021/12/02 04:11:12;;;;;;;2.37;0.80;;;;;;;4.39;93.56;97148.41;5028447;28;20028;-70
2021/12/02 04:13:42;;;;;;;4.38;0.68;;;;;;;4.32;93.78;97137.69;5025754;28;20436;-70
2021/12/02 04:16:14;;;;;;;1.95;0.60;;;;;;;4.44;93.31;97127.19;5026152;28;20108;-70
2021/12/02 04:18:39;;;;;;;1.80;0.52;;;;;;;4.43;93.43;97120.19;5015076;28;20025;-70
2021/12/02 04:21:05;;;;;;;1.50;0.70;;;;;;;4.48;93.42;97122.22;5028488;28;20754;-70
2021/12/02 04:23:30;;;;;;;4.70;0.90;;;;;;;4.26;92.90;97090.31;5028792;28;20479;-70
2021/12/02 04:25:55;;;;;;;2.20;0.60;;;;;;;4.43;93.07;97112.16;5028687;28;20116;-70
2021/12/02 04:28:21;;;;;;;2.75;0.88;;;;;;;4.39;93.45;97119.75;5026956;28;20479;-70
2021/12/02 04:30:46;;;;;;;8.48;0.70;;;;;;;4.34;93.42;97119.56;5029036;28;20071;-72
2021/12/02 04:33:11;;;;;;;2.55;0.93;;;;;;;4.32;93.70;97123.47;5031453;28;20048;-72
2021/12/02 04:35:37;;;;;;;3.33;0.80;;;;;;;4.21;93.38;97113.38;5031887;28;20033;-71
2021/12/02 04:38:02;;;;;;;4.05;0.90;;;;;;;4.18;94.28;97123.47;5032714;28;20033;-70
2021/12/02 04:40:27;;;;;;;2.22;0.98;;;;;;;3.96;94.56;97100.59;5032476;28;20234;-71
2021/12/02 04:42:53;;;;;;;2.42;0.95;;;;;;;4.07;95.21;97129.41;5031975;28;20040;-71
2021/12/02 04:45:19;;;;;;;3.30;0.80;;;;;;;4.04;95.39;97129.00;5027868;28;20025;-70
2021/12/02 04:47:44;;;;;;;3.75;0.75;;;;;;;4.08;95.16;97131.06;5027003;28;20035;-70
2021/12/02 04:50:10;;;;;;;3.17;0.90;;;;;;;4.08;95.34;97130.25;5029390;28;20040;-71
2021/12/02 04:52:36;;;;;;;6.18;1.25;;;;;;;4.08;94.88;97119.53;5031720;28;20029;-72
2021/12/02 04:55:04;;;;;;;3.47;1.08;;;;;;;4.14;94.43;97129.44;5029051;28;20760;-75
2021/12/02 04:57:29;;;;;;;3.60;0.90;;;;;;;4.12;94.28;97124.28;5030207;28;20095;-74
2021/12/02 04:59:55;;;;;;;2.65;1.10;;;;;;;4.14;94.29;97119.56;5026226;28;20499;-77
2021/12/02 05:02:20;;;;;;;4.10;0.70;;;;;;;4.16;94.44;97122.00;5010299;28;20037;-80
2021/12/02 05:04:45;;;;;;;5.68;1.02;;;;;;;4.08;94.29;97109.66;5018753;28;20514;-72
2021/12/02 05:07:11;;;;;;;3.42;1.08;;;;;;;4.13;94.11;97144.66;5012280;28;20035;-69
2021/12/02 05:09:36;;;;;;;1.42;0.75;;;;;;;3.90;94.68;97117.44;5026980;28;20025;-76
2021/12/02 05:12:01;;;;;;;4.78;0.90;;;;;;;3.98;95.33;97133.28;5029660;28;20603;-73
2021/12/02 05:14:27;;;;;;;2.35;0.90;;;;;;;3.95;95.46;97144.41;5032495;28;20549;-72
2021/12/02 05:16:52;;;;;;;2.20;0.80;;;;;;;3.73;95.97;97139.22;5022863;28;20034;-75
2021/12/02 05:19:17;;;;;;;1.52;0.70;;;;;;;3.61;96.05;97122.09;5021352;28;20032;-72
2021/12/02 05:21:43;;;;;;;2.97;0.93;;;;;;;3.29;97.07;97105.72;5029300;28;20033;-77
2021/12/02 05:24:08;;;;;;;4.57;0.93;;;;;;;3.38;97.76;97118.91;5024784;28;20063;-72
2021/12/02 05:26:34;;;;;;;3.50;1.02;;;;;;;3.54;97.25;97152.50;5015525;28;20022;-74
2021/12/02 05:28:59;;;;;;;3.92;1.15;;;;;;;3.48;97.20;97133.59;5010413;28;20022;-75
2021/12/02 05:31:24;;;;;;;4.38;0.88;;;;;;;3.29;97.61;97100.38;5019704;28;20137;-75
2021/12/02 05:33:50;;;;;;;3.55;1.10;;;;;;;3.68;97.28;97151.53;5024828;28;20491;-76
2021/12/02 05:36:15;;;;;;;2.85;1.30;;;;;;;3.46;96.79;97110.75;5013937;28;20101;-72
2021/12/02 05:38:41;;;;;;;1.75;1.05;;;;;;;3.64;97.19;97140.44;5032162;28;20025;-73
2021/12/02 05:41:07;;;;;;;1.48;1.00;;;;;;;3.57;97.19;97136.91;5011067;28;20483;-73
2021/12/02 05:43:33;;;;;;;2.10;0.90;;;;;;;3.43;98.22;97143.19;5010134;28;20076;-72
2021/12/02 05:45:59;;;;;;;1.95;1.10;;;;;;;3.47;97.92;97145.28;5032510;28;20108;-73
2021/12/02 05:48:24;;;;;;;1.83;1.02;;;;;;;3.54;98.00;97136.44;5023002;28;20181;-73
2021/12/02 05:50:49;;;;;;;4.88;1.63;;;;;;;3.52;97.72;97136.66;5022348;28;20025;-74
2021/12/02 05:53:16;;;;;;;5.05;1.35;;;;;;;3.47;98.13;97133.78;5012610;28;20468;-73
2021/12/02 05:55:41;;;;;;;5.72;2.20;;;;;;;3.57;97.27;97138.75;5014187;28;20520;-72
2021/12/02 05:58:07;;;;;;;2.80;0.80;;;;;;;3.46;97.02;97108.06;5031699;28;20152;-72
2021/12/02 06:00:34;;;;;;;2.60;0.82;;;;;;;3.60;96.89;97120.44;5017020;28;20033;-69
2021/12/02 06:02:59;;;;;;;2.60;1.05;;;;;;;3.50;96.96;97118.13;5028798;28;20030;-73
2021/12/02 06:05:25;;;;;;;5.38;1.80;;;;;;;3.58;97.26;97132.38;5012598;28;20033;-72
2021/12/02 06:07:53;;;;;;;4.88;1.55;;;;;;;3.46;97.36;97116.09;5017903;28;20025;-76
2021/12/02 06:10:19;;;;;;;3.78;1.35;;;;;;;3.53;96.83;97111.56;5027931;28;20026;-72
2021/12/02 06:12:44;;;;;;;2.03;1.00;;;;;;;3.46;96.95;97113.41;5030300;28;20028;-70
2021/12/02 06:15:10;;;;;;;4.82;1.10;;;;;;;3.59;97.59;97124.16;5030833;28;20025;-73
2021/12/02 06:17:36;;;;;;;7.90;1.17;;;;;;;3.52;96.54;97107.25;5020962;28;20029;-70
2021/12/02 06:20:06;;;;;;;1.70;0.63;;;;;;;3.25;96.77;97077.75;5011774;28;20495;-74
2021/12/02 06:22:33;;;;;;;3.95;0.77;;;;;;;3.69;96.72;97127.28;5014061;28;20037;-75
2021/12/02 06:25:17;;;;;;;1.35;0.77;;;;;;;3.64;95.86;97112.84;5024742;28;20014;-75
2021/12/02 06:27:44;;;;;;;0.82;0.70;;;;;;;3.82;95.32;97122.97;5022956;28;20116;-76
2021/12/02 06:30:11;;;;;;;5.07;1.10;;;;;;;3.65;94.84;97093.94;5030329;28;20033;-75
2021/12/02 06:32:36;;;;;;;1.65;0.85;;;;;;;3.89;94.70;97124.66;5025550;28;20017;-75
2021/12/02 06:35:01;;;;;;;2.47;0.80;;;;;;;3.95;94.56;97133.72;5028514;28;20067;-73
2021/12/02 06:37:27;;;;;;;2.60;0.95;;;;;;;3.87;94.42;97112.50;5029991;28;20056;-75
2021/12/02 06:39:52;;;;;;;1.85;0.60;;;;;;;4.01;94.11;97126.72;5012656;28;20067;-76
2021/12/02 06:42:18;;;;;;;5.03;0.60;;;;;;;3.96;94.13;97127.34;5028348;28;20025;-76
2021/12/02 06:44:44;;;;;;;1.08;0.60;;;;;;;3.84;94.83;97120.94;5019359;28;20762;-73
2021/12/02 06:47:10;;;;;;;3.58;0.80;;;;;;;4.04;94.67;97145.06;4999012;28;20032;-74
2021/12/02 06:49:35;;;;;;;3.45;0.68;;;;;;;3.99;94.10;97116.22;5031179;28;20033;-73
2021/12/02 06:52:03;;;;;;;2.70;1.15;;;;;;;3.81;94.20;97090.06;5028413;28;20568;-73
2021/12/02 06:54:29;;;;;;;2.15;0.90;;;;;;;3.90;94.23;97109.41;5004814;28;20021;-73
2021/12/02 06:56:54;;;;;;;1.52;0.70;;;;;;;3.99;94.34;97115.41;5024925;28;20024;-73
2021/12/02 06:59:20;;;;;;;3.35;0.90;;;;;;;3.97;93.66;97114.78;5016814;28;20075;-73
2021/12/02 07:01:46;;;;;;;1.27;0.60;;;;;;;4.10;94.13;97144.25;5027573;28;20029;-72
2021/12/02 07:04:11;;;;;;;1.35;0.80;;;;;;;4.03;94.50;97122.00;5027414;28;20029;-72
2021/12/02 07:06:38;;;;;;;4.85;0.60;;;;;;;4.07;94.14;97133.94;5001110;28;20128;-73
2021/12/02 07:09:05;;;;;;;2.63;0.93;;;;;;;4.15;94.25;97150.63;5019794;28;20483;-74
2021/12/02 07:11:30;;;;;;;4.40;0.80;;;;;;;3.99;93.95;97124.25;5030456;28;20029;-73
2021/12/02 07:14:00;;;;;;;3.72;0.70;;;;;;;3.92;94.09;97120.75;5030200;28;20055;-73
2021/12/02 07:16:26;;;;;;;2.90;1.00;;;;;;;4.19;93.63;97148.38;5029844;28;20033;-73
2021/12/02 07:18:55;;;;;;;6.72;1.83;;;;;;;4.04;93.06;97143.22;5009576;28;20025;-76
2021/12/02 07:21:21;;;;;;;4.95;1.00;;;;;;;3.94;93.57;97129.41;5018926;28;20029;-71
2021/12/02 07:23:47;;;;;;;3.95;1.20;;;;;;;4.01;93.02;97130.25;5006060;28;20028;-72
2021/12/02 07:26:12;;;;;;;3.90;0.80;;;;;;;4.12;93.67;97136.84;5030272;28;20033;-72
2021/12/02 07:28:38;;;;;;;1.45;0.90;;;;;;;4.00;93.29;97112.53;5019898;28;20120;-71
2021/12/02 07:31:05;;;;;;;1.90;1.00;;;;;;;4.17;94.13;97150.44;5016860;28;20051;-73
2021/12/02 07:33:35;;;;;;;2.88;1.15;;;;;;;4.12;94.52;97161.75;5027328;28;20091;-71
2021/12/02 07:36:00;;;;;;;4.72;1.05;;;;;;;4.15;94.14;97147.97;5017099;28;20037;-70
2021/12/02 07:38:26;;;;;;;2.38;1.00;;;;;;;3.91;93.56;97113.75;5010321;28;20396;-69
2021/12/02 07:40:51;;;;;;;2.30;0.50;;;;;;;3.94;92.70;97121.38;5027876;28;20087;-69
2021/12/02 07:43:19;;;;;;;1.95;0.60;;;;;;;4.23;92.26;97154.97;5003797;28;20030;-69
2021/12/02 07:45:44;;;;;;;0.80;0.50;;;;;;;4.17;91.87;97142.41;5016554;28;20036;-68
2021/12/02 07:48:10;;;;;;;1.33;0.60;;;;;;;4.11;91.76;97133.34;5011846;28;20037;-74
2021/12/02 07:50:36;;;;;;;1.65;0.60;;;;;;;4.14;92.52;97132.94;5009541;28;20472;-70
2021/12/02 07:53:05;;;;;;;1.92;0.60;;;;;;;4.33;91.96;97154.59;5028226;28;20037;-69
2021/12/02 07:55:31;;;;;;;3.05;0.60;;;;;;;4.40;91.12;97150.03;5025517;28;20095;-69
2021/12/02 07:57:57;;;;;;;1.40;0.63;;;;;;;4.36;90.43;97148.81;5018850;28;20041;-70
2021/12/02 08:00:27;;;;;;;0.95;0.50;;;;;;;4.36;91.30;97156.84;5011204;28;20037;-71
2021/12/02 08:02:54;;;;;;;2.45;0.75;;;;;;;4.43;89.99;97159.50;4999987;28;20506;-71
2021/12/02 08:05:23;;;;;;;2.80;0.50;;;;;;;4.41;89.96;97162.41;5017587;28;20029;-72
2021/12/02 08:07:49;;;;;;;6.25;0.80;;;;;;;4.37;90.37;97158.47;5021096;28;20128;-71
2021/12/02 08:10:15;;;;;;;1.92;0.50;;;;;;;4.46;90.28;97159.13;5007446;28;20049;-75
2021/12/02 08:12:47;;;;;;;1.98;0.50;;;;;;;4.22;89.93;97141.78;5028590;28;20029;-72
2021/12/02 08:15:14;;;;;;;1.05;0.50;;;;;;;4.21;91.39;97150.84;5015724;28;20048;-74
2021/12/02 08:17:39;;;;;;;4.35;0.55;;;;;;;4.24;91.83;97175.34;5031201;28;20025;-72
2021/12/02 08:20:05;;;;;;;4.20;0.52;;;;;;;4.26;91.71;97169.81;5024872;28;20570;-72
2021/12/02 08:22:31;;;;;;;2.08;0.52;;;;;;;4.24;92.58;97178.03;5028576;28;20038;-73
2021/12/02 08:24:58;;;;;;;2.13;0.63;;;;;;;4.19;93.34;97180.47;5032702;28;20544;-75
2021/12/02 08:27:24;;;;;;;1.02;0.50;;;;;;;4.21;93.04;97162.38;5014746;28;20030;-71
2021/12/02 08:29:49;;;;;;;4.75;0.73;;;;;;;4.31;93.12;97178.06;5007787;28;20033;-73
2021/12/02 08:32:15;;;;;;;1.95;0.60;;;;;;;4.25;92.92;97160.13;5015002;28;20490;-76
2021/12/02 08:34:40;;;;;;;2.55;0.75;;;;;;;4.17;92.44;97150.44;5012475;28;20075;-73
2021/12/02 08:37:07;;;;;;;2.03;0.60;;;;;;;4.35;92.68;97174.78;5021687;28;20022;-73
2021/12/02 08:39:33;;;;;;;2.25;0.63;;;;;;;4.28;93.33;97155.19;5018231;28;20040;-75
2021/12/02 08:41:59;;;;;;;2.75;0.65;;;;;;;4.42;92.57;97173.94;5021049;28;20033;-74
2021/12/02 08:44:25;;;;;;;3.35;0.80;;;;;;;4.51;93.04;97178.09;5016729;28;20022;-75
2021/12/02 08:46:53;;;;;;;2.33;0.90;;;;;;;4.39;93.31;97143.88;5027969;28;20141;-75
2021/12/02 08:49:20;;;;;;;3.25;0.90;;;;;;;4.44;92.04;97167.34;5033623;28;20033;-78
2021/12/02 08:51:46;;;;;;;3.47;1.00;;;;;;;4.28;93.13;97154.38;5011187;28;20033;-76
2021/12/02 08:54:13;;;;;;;2.90;0.77;;;;;;;4.35;94.08;97180.13;5012636;28;20032;-77
2021/12/02 08:56:38;;;;;;;1.33;0.60;;;;;;;4.23;94.51;97160.31;5022303;28;20037;-74
2021/12/02 08:59:04;;;;;;;3.05;0.60;;;;;;;4.27;94.94;97171.44;5032156;28;20038;-80
2021/12/02 09:01:30;;;;;;;1.90;0.65;;;;;;;4.28;94.52;97149.00;5016845;28;20033;-75
2021/12/02 09:03:56;;;;;;;1.20;0.60;;;;;;;4.20;94.64;97135.84;5024735;28;20033;-77
2021/12/02 09:06:24;;;;;;;1.77;0.63;;;;;;;4.49;95.57;97172.09;5025596;28;20030;-68
2021/12/02 09:08:54;;;;;;;1.55;0.70;;;;;;;4.52;94.94;97171.69;5031648;28;20091;-73
2021/12/02 09:11:20;;;;;;;4.35;1.50;;;;;;;4.41;94.99;97154.38;5037495;28;20049;-77
2021/12/02 09:13:45;;;;;;;5.43;1.55;;;;;;;4.47;94.06;97145.53;5030685;28;20021;-74
2021/12/02 09:16:13;;;;;;;4.57;1.00;;;;;;;4.56;94.66;97176.44;5019888;28;20056;-76
2021/12/02 09:18:39;;;;;;;1.08;0.70;;;;;;;4.47;95.23;97158.91;5019891;28;20550;-75
2021/12/02 09:21:04;;;;;;;5.20;1.10;;;;;;;4.53;95.25;97184.88;5004887;28;20021;-71
2021/12/02 09:23:29;;;;;;;6.13;1.77;;;;;;;4.29;95.62;97177.41;5019354;28;20120;-74
2021/12/02 09:25:55;;;;;;;3.45;1.42;;;;;;;4.14;97.45;97166.91;5028681;28;20029;-73
2021/12/02 09:28:20;;;;;;;2.90;1.40;;;;;;;4.17;98.38;97183.38;5024566;28;20032;-75
2021/12/02 09:30:46;;;;;;;3.33;1.30;;;;;;;4.01;99.62;97157.00;5029780;28;20084;-75
2021/12/02 09:33:11;;;;;;;2.72;1.60;;;;;;;4.05;100.00;97190.34;5031377;28;20032;-74
2021/12/02 09:35:37;;;;;;;3.00;1.70;;;;;;;4.22;100.00;97211.38;5026720;28;20032;-76
2021/12/02 09:38:06;;;;;;;3.05;1.42;;;;;;;3.91;100.00;97196.69;5032127;28;20037;-71
2021/12/02 09:40:32;;;;;;;2.92;0.60;;;;;;;3.53;100.00;97197.13;5027182;28;20068;-72
2021/12/02 09:42:57;;;;;;;1.08;0.50;;;;;;;3.16;100.00;97196.50;5025040;28;20647;-73
2021/12/02 09:45:23;;;;;;;0.32;0.32;;;;;;;3.01;100.00;97222.50;5024823;28;20123;-72
2021/12/02 09:47:49;;;;;;;0.30;0.30;;;;;;;2.82;100.00;97222.16;5007376;28;20028;-72
2021/12/02 09:50:20;;;;;;;0.45;0.30;;;;;;;2.74;100.00;97246.34;5003781;28;20029;-73
2021/12/02 09:52:46;;;;;;;0.30;0.30;;;;;;;2.57;100.00;97236.97;5028313;28;20021;-72
2021/12/02 09:55:21;;;;;;;2.03;0.40;;;;;;;2.52;100.00;97242.03;5010387;28;20029;-72
2021/12/02 09:57:52;;;;;;;0.45;0.20;;;;;;;2.51;100.00;97237.69;5031099;28;20026;-70
2021/12/02 10:00:23;;;;;;;1.13;0.20;;;;;;;2.35;100.00;97233.44;5030579;28;20037;-71
2021/12/02 10:02:56;;;;;;;0.35;0.20;;;;;;;2.33;100.00;97222.97;5020969;28;20029;-70
2021/12/02 10:05:34;;;;;;;1.50;0.30;;;;;;;2.32;100.00;97221.28;5031531;28;20025;-73
2021/12/02 10:08:03;;;;;;;1.55;0.30;;;;;;;2.51;100.00;97243.84;5028233;28;20388;-71
2021/12/02 10:10:40;;;;;;;;;;;;;;;2.52;100.00;97247.38;5020276;28;20113;-70
2021/12/02 10:13:43;;;;;;;1.58;0.60;;;;;;;2.47;100.00;97253.28;5021203;28;19944;-70
2021/12/02 10:16:21;;;;;;;1.15;0.30;;;;;;;2.62;100.00;97253.22;5010502;28;20537;-70
2021/12/02 10:18:58;;;;;;;1.00;0.30;;;;;;;2.67;100.00;97258.78;5021198;28;20030;-69
2021/12/02 10:21:35;;;;;;;0.80;0.43;;;;;;;2.63;100.00;97244.19;5007628;28;20044;-70
2021/12/02 10:24:04;;;;;;;0.80;0.40;;;;;;;2.75;100.00;97247.16;5027115;28;20735;-73
2021/12/02 10:26:34;;;;;;;0.73;0.50;;;;;;;2.77;100.00;97253.13;5007245;28;20033;-73
2021/12/02 10:29:06;;;;;;;2.28;0.40;;;;;;;2.73;100.00;97230.53;5009308;28;20032;-72
2021/12/02 10:31:32;;;;;;;0.98;0.50;;;;;;;2.97;100.00;97242.63;5018197;28;20031;-73
2021/12/02 10:34:03;;;;;;;0.40;0.40;;;;;;;3.14;100.00;97251.16;5013534;28;20125;-73
2021/12/02 10:36:32;;;;;;;0.60;0.50;;;;;;;3.16;100.00;97249.13;5030687;28;20284;-73
2021/12/02 10:39:09;;;;;;;1.30;0.50;;;;;;;3.16;100.00;97233.09;5030046;28;20652;-71
2021/12/02 10:41:34;;;;;;;1.05;0.60;;;;;;;3.42;100.00;97248.50;5031418;28;20044;-75
2021/12/02 10:44:06;;;;;;;0.40;0.40;;;;;;;3.28;100.00;97207.50;5019610;28;20025;-75
2021/12/02 10:46:33;;;;;;;1.40;0.50;;;;;;;3.47;100.00;97230.00;5025613;28;20058;-70
2021/12/02 10:48:59;;;;;;;2.00;0.80;;;;;;;3.60;100.00;97247.97;5025892;28;20041;-71
2021/12/02 10:51:50;;;;;;;1.52;0.60;;;;;;;3.53;100.00;97250.59;5024055;28;20036;-70
2021/12/02 10:54:21;;;;;;;0.80;0.70;;;;;;;3.68;100.00;97250.50;5006871;28;20161;-71
2021/12/02 10:56:49;;;;;;;0.80;0.60;;;;;;;3.71;100.00;97237.53;5019342;28;20034;-71
2021/12/02 10:59:39;;;;;;;1.27;0.67;;;;;;;3.68;100.00;97210.38;5020502;28;20033;-71
2021/12/02 11:02:17;;;;;;;1.10;0.70;;;;;;;4.03;100.00;97240.56;5011453;28;20647;-71
2021/12/02 11:05:10;;;;;;;2.00;0.90;;;;;;;4.11;100.00;97240.41;5023664;28;20117;-71
2021/12/02 11:07:41;;;;;;;1.52;0.63;;;;;;;4.23;99.48;97237.94;5009466;28;20276;-71
2021/12/02 11:10:08;;;;;;;2.20;0.80;;;;;;;4.34;100.00;97236.53;5026792;28;20036;-71
2021/12/02 11:12:37;;;;;;;2.85;0.93;;;;;;;4.35;98.59;97224.81;5019379;28;20033;-70
2021/12/02 11:15:07;;;;;;;1.73;0.70;;;;;;;4.34;97.64;97242.72;5020837;28;20030;-71
2021/12/02 11:17:41;;;;;;;1.15;0.65;;;;;;;4.34;98.04;97244.56;5015896;28;20033;-70
2021/12/02 11:20:10;;;;;;;0.93;0.80;;;;;;;4.23;98.46;97245.16;5023471;28;20037;-71
2021/12/02 11:22:36;;;;;;;1.27;0.68;;;;;;;4.19;99.34;97244.72;5027600;28;20038;-70
2021/12/02 11:25:04;;;;;;;1.08;0.70;;;;;;;4.10;99.97;97245.94;5028352;28;20036;-70
2021/12/02 11:27:42;;;;;;;1.08;0.75;;;;;;;4.18;100.00;97249.25;5028058;28;20083;-70
2021/12/02 11:30:20;;;;;;;2.00;1.00;;;;;;;4.00;99.87;97219.56;5028261;28;20068;-70
2021/12/02 11:32:49;;;;;;;4.13;1.48;;;;;;;4.25;99.38;97221.69;5028243;28;20036;-70
2021/12/02 11:35:17;;;;;;;2.25;0.90;;;;;;;4.59;98.13;97232.28;5024477;28;20053;-70
2021/12/02 11:37:46;;;;;;;3.13;0.80;;;;;;;4.47;95.82;97190.22;5027096;28;20049;-70
2021/12/02 11:40:26;;;;;;;1.60;1.00;;;;;;;5.05;94.77;97233.31;5024905;28;20435;-70
2021/12/02 11:42:52;;;;;;;;;;;;;;;5.09;93.19;97229.19;5020984;28;20037;-70
2021/12/02 11:45:20;;;;;;;1.17;0.65;;;;;;;5.09;92.44;97233.75;5028684;28;20003;-69
2021/12/02 11:47:47;;;;;;;1.63;0.60;;;;;;;4.93;93.39;97227.75;5026565;28;20037;-70
2021/12/02 11:50:16;;;;;;;1.05;0.65;;;;;;;4.84;95.21;97216.41;5027140;28;20674;-71
2021/12/02 11:52:42;;;;;;;1.10;0.70;;;;;;;5.10;95.32;97236.19;5009775;28;20139;-71
2021/12/02 11:55:24;;;;;;;1.27;0.50;;;;;;;5.07;92.99;97233.94;5025048;28;20030;-71